Wetterdaten: Woche 14.08.17 - 20.08.17 (KW33)
Datum Zeit Temp. A. Feuchte A. Luftdruck Regen Wind Richtung Taupunkt Windchill Windben
14.08.2017 00:00 15,0 C 93 % 1019,6 hPa 0,0 l/m 0,0 km/h (0 Bft) W-NW 13,9 C 15,0 C 0,1 km/h (0 Bft)
14.08.2017 01:00 14,9 C 94 % 1019,4 hPa 0,0 l/m 0,0 km/h (0 Bft) W-NW 13,9 C 14,9 C 0,5 km/h (0 Bft)
14.08.2017 02:00 14,4 C 94 % 1019,0 hPa 0,0 l/m 0,0 km/h (0 Bft) W-NW 13,4 C 14,4 C 0,4 km/h (0 Bft)
14.08.2017 03:00 13,2 C 95 % 1018,8 hPa 0,0 l/m 0,0 km/h (0 Bft) W-NW 12,4 C 13,2 C 0,0 km/h (0 Bft)
14.08.2017 04:00 12,5 C 96 % 1018,5 hPa 0,0 l/m 0,0 km/h (0 Bft) W-NW 11,8 C 12,5 C 0,0 km/h (0 Bft)
14.08.2017 05:00 11,7 C 96 % 1018,5 hPa 0,0 l/m 0,0 km/h (0 Bft) W-NW 11,0 C 11,7 C 0,0 km/h (0 Bft)
14.08.2017 06:00 11,4 C 97 % 1018,4 hPa 0,0 l/m 0,0 km/h (0 Bft) W-NW 10,9 C 11,4 C 0,0 km/h (0 Bft)
14.08.2017 07:00 11,6 C 97 % 1018,5 hPa 0,0 l/m 0,0 km/h (0 Bft) W-NW 11,1 C 11,6 C 0,0 km/h (0 Bft)
14.08.2017 08:00 14,4 C 95 % 1018,5 hPa 0,0 l/m 0,3 km/h (0 Bft) W-NW 13,5 C 14,4 C 1,6 km/h (1 Bft)
14.08.2017 09:00 18,3 C 84 % 1018,3 hPa 0,0 l/m 1,5 km/h (1 Bft) NW 15,5 C 18,3 C 4,3 km/h (1 Bft)
14.08.2017 10:00 20,2 C 75 % 1018,2 hPa 0,0 l/m 2,0 km/h (1 Bft) NW 15,6 C 20,2 C 6,1 km/h (2 Bft)
14.08.2017 11:00 22,4 C 66 % 1017,9 hPa 0,0 l/m 2,4 km/h (1 Bft) S-SW 15,8 C 22,4 C 5,7 km/h (2 Bft)
14.08.2017 12:00 23,4 C 63 % 1017,8 hPa 0,0 l/m 2,1 km/h (1 Bft) S-SO 15,9 C 23,4 C 6,2 km/h (2 Bft)
14.08.2017 13:00 24,5 C 58 % 1017,5 hPa 0,0 l/m 2,6 km/h (1 Bft) O-NO 15,7 C 24,5 C 6,8 km/h (2 Bft)
14.08.2017 14:00 25,1 C 59 % 1017,1 hPa 0,0 l/m 2,5 km/h (1 Bft) W-NW 16,4 C 25,1 C 5,9 km/h (2 Bft)
14.08.2017 15:00 26,1 C 53 % 1016,6 hPa 0,0 l/m 1,6 km/h (1 Bft) N-NO 15,6 C 26,1 C 4,9 km/h (1 Bft)
14.08.2017 16:00 27,5 C 47 % 1016,3 hPa 0,0 l/m 3,1 km/h (1 Bft) O-NO 15,2 C 27,5 C 8,4 km/h (2 Bft)
14.08.2017 17:00 26,9 C 47 % 1016,1 hPa 0,0 l/m 4,4 km/h (1 Bft) O-NO 14,5 C 26,9 C 10,6 km/h (2 Bft)
14.08.2017 18:00 26,2 C 44 % 1015,9 hPa 0,0 l/m 2,9 km/h (1 Bft) O-NO 12,9 C 26,2 C 7,4 km/h (2 Bft)
14.08.2017 19:00 24,0 C 50 % 1015,8 hPa 0,0 l/m 1,6 km/h (1 Bft) O 12,7 C 24,0 C 4,7 km/h (1 Bft)
14.08.2017 20:00 20,8 C 66 % 1016,0 hPa 0,0 l/m 0,1 km/h (0 Bft) O 14,2 C 20,8 C 1,1 km/h (0 Bft)
14.08.2017 21:00 17,6 C 80 % 1016,4 hPa 0,0 l/m 0,0 km/h (0 Bft) O 14,1 C 17,6 C 0,4 km/h (0 Bft)
14.08.2017 22:00 15,8 C 86 % 1016,8 hPa 0,0 l/m 0,0 km/h (0 Bft) O 13,5 C 15,8 C 0,5 km/h (0 Bft)
14.08.2017 23:00 14,7 C 89 % 1017,0 hPa 0,0 l/m 0,0 km/h (0 Bft) O 12,9 C 14,7 C 0,0 km/h (0 Bft)
15.08.2017 00:00 14,1 C 91 % 1017,0 hPa 0,0 l/m 0,0 km/h (0 Bft) O 12,6 C 14,1 C 0,3 km/h (0 Bft)
15.08.2017 01:00 13,3 C 93 % 1016,9 hPa 0,0 l/m 0,0 km/h (0 Bft) O 12,1 C 13,3 C 0,0 km/h (0 Bft)
15.08.2017 02:00 12,8 C 94 % 1016,7 hPa 0,0 l/m 0,0 km/h (0 Bft) O 11,8 C 12,8 C 0,0 km/h (0 Bft)
15.08.2017 03:00 12,6 C 95 % 1016,5 hPa 0,0 l/m 0,0 km/h (0 Bft) O 11,8 C 12,6 C 0,1 km/h (0 Bft)
15.08.2017 04:00 13,0 C 96 % 1016,6 hPa 0,0 l/m 0,0 km/h (0 Bft) O 12,4 C 13,0 C 0,0 km/h (0 Bft)
15.08.2017 05:00 13,1 C 95 % 1016,5 hPa 0,0 l/m 0,0 km/h (0 Bft) O 12,3 C 13,1 C 0,1 km/h (0 Bft)
15.08.2017 06:00 12,8 C 95 % 1016,7 hPa 0,0 l/m 0,0 km/h (0 Bft) O 12,0 C 12,8 C 0,1 km/h (0 Bft)
15.08.2017 07:00 13,8 C 97 % 1016,7 hPa 0,0 l/m 0,2 km/h (0 Bft) O 13,2 C 13,8 C 1,9 km/h (1 Bft)
15.08.2017 08:00 18,3 C 87 % 1016,6 hPa 0,0 l/m 1,3 km/h (1 Bft) O 16,0 C 18,3 C 4,5 km/h (1 Bft)
15.08.2017 09:00 22,3 C 74 % 1016,3 hPa 0,0 l/m 1,8 km/h (1 Bft) NO 17,4 C 22,3 C 5,1 km/h (1 Bft)
15.08.2017 10:00 25,0 C 60 % 1016,2 hPa 0,0 l/m 4,3 km/h (1 Bft) NO 16,5 C 24,9 C 10,6 km/h (2 Bft)
15.08.2017 11:00 26,1 C 48 % 1016,5 hPa 0,0 l/m 7,3 km/h (2 Bft) NO 14,3 C 25,8 C 16,3 km/h (3 Bft)
15.08.2017 12:00 26,9 C 45 % 1016,3 hPa 0,0 l/m 6,6 km/h (2 Bft) O-NO 13,8 C 26,7 C 13,9 km/h (3 Bft)
15.08.2017 13:00 27,6 C 42 % 1016,3 hPa 0,0 l/m 4,6 km/h (1 Bft) O 13,5 C 27,6 C 12,1 km/h (2 Bft)
15.08.2017 14:00 28,4 C 42 % 1016,2 hPa 0,0 l/m 5,5 km/h (2 Bft) NO 14,2 C 28,4 C 14,8 km/h (3 Bft)
15.08.2017 15:00 28,7 C 45 % 1015,8 hPa 0,0 l/m 5,1 km/h (1 Bft) N-NO 15,5 C 28,7 C 14,2 km/h (3 Bft)
15.08.2017 16:00 27,8 C 49 % 1015,8 hPa 0,0 l/m 4,0 km/h (1 Bft) O-NO 16,1 C 27,8 C 10,6 km/h (2 Bft)
15.08.2017 17:00 25,9 C 56 % 1015,9 hPa 0,0 l/m 1,9 km/h (1 Bft) O 16,3 C 25,9 C 6,3 km/h (2 Bft)
15.08.2017 18:00 17,2 C 89 % 1017,0 hPa 20,1 l/m 3,2 km/h (1 Bft) O-NO 15,2 C 16,9 C 8,6 km/h (2 Bft)
15.08.2017 19:00 17,5 C 96 % 1016,9 hPa 0,0 l/m 1,1 km/h (0 Bft) O 16,9 C 17,5 C 4,1 km/h (1 Bft)
15.08.2017 20:00 17,5 C 95 % 1017,3 hPa 0,0 l/m 0,2 km/h (0 Bft) O 16,8 C 17,5 C 0,9 km/h (0 Bft)
15.08.2017 21:00 17,2 C 96 % 1018,2 hPa 0,0 l/m 0,3 km/h (0 Bft) O 16,5 C 17,2 C 2,0 km/h (1 Bft)
15.08.2017 22:00 16,9 C 97 % 1018,1 hPa 0,0 l/m 0,1 km/h (0 Bft) SO 16,3 C 16,9 C 0,9 km/h (0 Bft)
15.08.2017 23:00 16,5 C 97 % 1018,2 hPa 0,0 l/m 0,2 km/h (0 Bft) SO 16,1 C 16,5 C 1,4 km/h (1 Bft)
16.08.2017 00:00 16,5 C 97 % 1019,1 hPa 0,5 l/m 0,6 km/h (0 Bft) SO 16,0 C 16,5 C 2,9 km/h (1 Bft)
16.08.2017 01:00 16,4 C 97 % 1019,8 hPa 1,3 l/m 0,4 km/h (0 Bft) O-NO 15,9 C 16,4 C 1,9 km/h (1 Bft)
16.08.2017 02:00 16,2 C 97 % 1019,5 hPa 0,8 l/m 0,3 km/h (0 Bft) O-NO 15,7 C 16,2 C 2,0 km/h (1 Bft)
16.08.2017 03:00 16,1 C 97 % 1019,7 hPa 1,0 l/m 0,1 km/h (0 Bft) NO 15,7 C 16,1 C 0,4 km/h (0 Bft)
16.08.2017 04:00 15,9 C 97 % 1019,1 hPa 0,3 l/m 0,1 km/h (0 Bft) NO 15,4 C 15,9 C 0,9 km/h (0 Bft)
16.08.2017 05:00 15,5 C 97 % 1019,2 hPa 0,0 l/m 0,0 km/h (0 Bft) NO 15,0 C 15,5 C 0,3 km/h (0 Bft)
16.08.2017 06:00 15,0 C 98 % 1019,5 hPa 0,0 l/m 0,0 km/h (0 Bft) NO 14,7 C 15,0 C 0,3 km/h (0 Bft)
16.08.2017 07:00 15,1 C 98 % 1019,6 hPa 0,0 l/m 0,1 km/h (0 Bft) NO 14,8 C 15,1 C 0,8 km/h (0 Bft)
16.08.2017 08:00 16,2 C 98 % 1019,8 hPa 0,0 l/m 0,2 km/h (0 Bft) NO 15,8 C 16,2 C 1,6 km/h (1 Bft)
16.08.2017 09:00 17,7 C 94 % 1019,8 hPa 0,0 l/m 1,4 km/h (1 Bft) O-NO 16,7 C 17,7 C 5,1 km/h (1 Bft)
16.08.2017 10:00 20,0 C 85 % 1019,7 hPa 0,0 l/m 1,8 km/h (1 Bft) W-NW 17,4 C 20,0 C 4,8 km/h (1 Bft)
16.08.2017 11:00 22,3 C 74 % 1019,4 hPa 0,0 l/m 2,5 km/h (1 Bft) N 17,5 C 22,3 C 5,3 km/h (1 Bft)
16.08.2017 12:00 22,9 C 70 % 1019,1 hPa 0,0 l/m 1,9 km/h (1 Bft) NO 17,0 C 22,9 C 5,1 km/h (1 Bft)
16.08.2017 13:00 23,3 C 66 % 1018,8 hPa 0,0 l/m 1,5 km/h (1 Bft) O-SO 16,7 C 23,3 C 5,1 km/h (1 Bft)
16.08.2017 14:00 24,1 C 63 % 1018,6 hPa 0,0 l/m 1,4 km/h (1 Bft) O 16,5 C 24,1 C 3,5 km/h (1 Bft)
16.08.2017 15:00 24,7 C 62 % 1018,3 hPa 0,0 l/m 1,4 km/h (1 Bft) N-NO 16,8 C 24,7 C 4,4 km/h (1 Bft)
16.08.2017 16:00 24,8 C 61 % 1018,0 hPa 0,0 l/m 1,9 km/h (1 Bft) NO 16,8 C 24,8 C 5,3 km/h (1 Bft)
16.08.2017 17:00 24,9 C 60 % 1017,9 hPa 0,0 l/m 2,4 km/h (1 Bft) O-NO 16,5 C 24,9 C 6,3 km/h (2 Bft)
16.08.2017 18:00 23,8 C 65 % 1017,9 hPa 0,0 l/m 1,7 km/h (1 Bft) O-NO 16,8 C 23,8 C 4,5 km/h (1 Bft)
16.08.2017 19:00 22,5 C 76 % 1017,9 hPa 0,0 l/m 0,2 km/h (0 Bft) O-NO 18,0 C 22,5 C 1,1 km/h (0 Bft)
16.08.2017 20:00 21,1 C 82 % 1017,9 hPa 0,0 l/m 0,0 km/h (0 Bft) O-NO 17,9 C 21,1 C 0,3 km/h (0 Bft)
16.08.2017 21:00 18,4 C 88 % 1018,4 hPa 0,0 l/m 0,0 km/h (0 Bft) O-NO 16,5 C 18,4 C 0,0 km/h (0 Bft)
16.08.2017 22:00 16,8 C 92 % 1018,5 hPa 0,0 l/m 0,0 km/h (0 Bft) O-NO 15,5 C 16,8 C 0,0 km/h (0 Bft)
16.08.2017 23:00 16,1 C 95 % 1018,6 hPa 0,0 l/m 0,0 km/h (0 Bft) O-NO 15,3 C 16,1 C 0,0 km/h (0 Bft)
17.08.2017 00:00 16,0 C 95 % 1018,3 hPa 0,0 l/m 0,0 km/h (0 Bft) O-NO 15,2 C 16,0 C 0,0 km/h (0 Bft)
17.08.2017 01:00 15,1 C 95 % 1017,9 hPa 0,0 l/m 0,0 km/h (0 Bft) O-NO 14,4 C 15,1 C 0,0 km/h (0 Bft)
17.08.2017 02:00 15,0 C 97 % 1017,7 hPa 0,0 l/m 0,0 km/h (0 Bft) O-NO 14,5 C 15,0 C 0,1 km/h (0 Bft)
17.08.2017 03:00 15,0 C 96 % 1017,4 hPa 0,0 l/m 0,2 km/h (0 Bft) O-NO 14,4 C 15,0 C 0,8 km/h (0 Bft)
17.08.2017 04:00 14,5 C 96 % 1017,4 hPa 0,0 l/m 0,0 km/h (0 Bft) O-NO 13,9 C 14,5 C 0,0 km/h (0 Bft)
17.08.2017 05:00 14,0 C 96 % 1017,2 hPa 0,0 l/m 0,0 km/h (0 Bft) O-NO 13,4 C 14,0 C 0,0 km/h (0 Bft)
17.08.2017 06:00 13,9 C 97 % 1017,4 hPa 0,0 l/m 0,0 km/h (0 Bft) O-NO 13,5 C 13,9 C 0,3 km/h (0 Bft)
17.08.2017 07:00 14,9 C 98 % 1017,6 hPa 0,0 l/m 0,0 km/h (0 Bft) O-NO 14,5 C 14,9 C 0,5 km/h (0 Bft)
17.08.2017 08:00 16,6 C 98 % 1017,7 hPa 0,0 l/m 0,1 km/h (0 Bft) O-NO 16,2 C 16,6 C 0,9 km/h (0 Bft)
17.08.2017 09:00 20,8 C 84 % 1017,4 hPa 0,0 l/m 2,5 km/h (1 Bft) O-NO 17,9 C 20,8 C 5,9 km/h (2 Bft)
17.08.2017 10:00 22,9 C 72 % 1017,6 hPa 0,0 l/m 4,2 km/h (1 Bft) O-NO 17,5 C 22,9 C 11,0 km/h (2 Bft)
17.08.2017 11:00 24,1 C 67 % 1017,4 hPa 0,0 l/m 5,1 km/h (1 Bft) N-NO 17,6 C 24,0 C 11,4 km/h (2 Bft)
17.08.2017 12:00 24,5 C 65 % 1017,2 hPa 0,0 l/m 5,5 km/h (2 Bft) O-NO 17,4 C 24,4 C 13,6 km/h (3 Bft)
17.08.2017 13:00 24,6 C 63 % 1017,0 hPa 0,0 l/m 5,6 km/h (2 Bft) NO 17,0 C 24,6 C 13,7 km/h (3 Bft)
17.08.2017 14:00 25,0 C 59 % 1016,8 hPa 0,0 l/m 7,1 km/h (2 Bft) O-NO 16,3 C 24,8 C 16,4 km/h (3 Bft)
17.08.2017 15:00 25,5 C 58 % 1016,4 hPa 0,0 l/m 6,6 km/h (2 Bft) NO 16,6 C 25,3 C 15,0 km/h (3 Bft)
17.08.2017 16:00 26,2 C 55 % 1016,2 hPa 0,0 l/m 5,7 km/h (2 Bft) O-NO 16,4 C 26,1 C 13,8 km/h (3 Bft)
17.08.2017 17:00 25,3 C 58 % 1016,3 hPa 0,0 l/m 3,3 km/h (1 Bft) O 16,5 C 25,3 C 8,4 km/h (2 Bft)
17.08.2017 18:00 24,8 C 61 % 1016,4 hPa 0,0 l/m 2,7 km/h (1 Bft) NO 16,7 C 24,8 C 7,5 km/h (2 Bft)
17.08.2017 19:00 23,7 C 63 % 1016,2 hPa 0,0 l/m 1,8 km/h (1 Bft) O-NO 16,3 C 23,7 C 5,2 km/h (1 Bft)
17.08.2017 20:00 21,3 C 76 % 1016,3 hPa 0,0 l/m 0,0 km/h (0 Bft) O-NO 16,8 C 21,3 C 0,0 km/h (0 Bft)
17.08.2017 21:00 18,7 C 86 % 1016,4 hPa 0,0 l/m 0,0 km/h (0 Bft) O-NO 16,2 C 18,7 C 0,0 km/h (0 Bft)
17.08.2017 22:00 16,9 C 90 % 1016,3 hPa 0,0 l/m 0,0 km/h (0 Bft) O-NO 15,2 C 16,9 C 0,0 km/h (0 Bft)
17.08.2017 23:00 15,5 C 92 % 1016,6 hPa 0,0 l/m 0,0 km/h (0 Bft) O-NO 14,3 C 15,5 C 0,1 km/h (0 Bft)
18.08.2017 00:00 15,0 C 94 % 1016,8 hPa 0,0 l/m 0,0 km/h (0 Bft) O-NO 13,9 C 15,0 C 0,1 km/h (0 Bft)
18.08.2017 01:00 14,5 C 94 % 1016,6 hPa 0,0 l/m 0,0 km/h (0 Bft) O-NO 13,5 C 14,5 C 0,0 km/h (0 Bft)
18.08.2017 02:00 14,0 C 95 % 1016,4 hPa 0,0 l/m 0,0 km/h (0 Bft) O-NO 13,2 C 14,0 C 0,4 km/h (0 Bft)
18.08.2017 03:00 13,3 C 95 % 1016,0 hPa 0,0 l/m 0,0 km/h (0 Bft) O-NO 12,5 C 13,3 C 0,0 km/h (0 Bft)
18.08.2017 04:00 12,8 C 96 % 1015,8 hPa 0,0 l/m 0,0 km/h (0 Bft) O-NO 12,1 C 12,8 C 0,3 km/h (0 Bft)
18.08.2017 05:00 12,3 C 96 % 1015,7 hPa 0,0 l/m 0,0 km/h (0 Bft) O-NO 11,7 C 12,3 C 0,0 km/h (0 Bft)
18.08.2017 06:00 12,2 C 97 % 1015,5 hPa 0,0 l/m 0,0 km/h (0 Bft) O-NO 11,6 C 12,2 C 0,4 km/h (0 Bft)
18.08.2017 07:00 13,2 C 97 % 1015,3 hPa 0,0 l/m 0,0 km/h (0 Bft) O-NO 12,8 C 13,2 C 0,8 km/h (0 Bft)
18.08.2017 08:00 15,4 C 95 % 1015,1 hPa 0,0 l/m 0,0 km/h (0 Bft) O-NO 14,6 C 15,4 C 0,4 km/h (0 Bft)
18.08.2017 09:00 18,9 C 85 % 1014,9 hPa 0,0 l/m 1,1 km/h (1 Bft) O-NO 16,3 C 18,9 C 3,6 km/h (1 Bft)
18.08.2017 10:00 22,5 C 69 % 1014,5 hPa 0,0 l/m 2,7 km/h (1 Bft) O-NO 16,5 C 22,5 C 6,3 km/h (2 Bft)
18.08.2017 11:00 25,1 C 61 % 1013,7 hPa 0,0 l/m 2,1 km/h (1 Bft) O-SO 17,1 C 25,1 C 5,1 km/h (1 Bft)
18.08.2017 12:00 25,4 C 60 % 1013,2 hPa 0,0 l/m 2,0 km/h (1 Bft) O-NO 17,1 C 25,4 C 5,2 km/h (1 Bft)
18.08.2017 13:00 26,9 C 55 % 1012,5 hPa 0,0 l/m 6,1 km/h (2 Bft) NO 17,0 C 26,8 C 15,4 km/h (3 Bft)
18.08.2017 14:00 27,2 C 54 % 1011,7 hPa 0,0 l/m 5,1 km/h (1 Bft) O-NO 16,9 C 27,2 C 13,4 km/h (3 Bft)
18.08.2017 15:00 27,6 C 50 % 1011,0 hPa 0,0 l/m 7,4 km/h (2 Bft) O-NO 16,2 C 27,3 C 19,8 km/h (4 Bft)
18.08.2017 16:00 26,1 C 56 % 1010,5 hPa 0,0 l/m 5,2 km/h (1 Bft) O-NO 16,6 C 26,1 C 14,9 km/h (3 Bft)
18.08.2017 17:00 20,2 C 86 % 1011,6 hPa 12,4 l/m 3,7 km/h (1 Bft) O 17,7 C 20,2 C 11,9 km/h (2 Bft)
18.08.2017 18:00 16,7 C 91 % 1012,8 hPa 1,5 l/m 4,0 km/h (1 Bft) NO 15,1 C 16,7 C 12,6 km/h (2 Bft)
18.08.2017 19:00 15,2 C 94 % 1013,8 hPa 4,6 l/m 3,1 km/h (1 Bft) O 14,2 C 15,2 C 9,4 km/h (2 Bft)
18.08.2017 20:00 14,8 C 95 % 1013,7 hPa 0,0 l/m 2,0 km/h (1 Bft) O-NO 14,0 C 14,8 C 5,9 km/h (2 Bft)
18.08.2017 21:00 14,5 C 94 % 1015,0 hPa 0,0 l/m 2,7 km/h (1 Bft) O-NO 13,5 C 14,5 C 9,0 km/h (2 Bft)
18.08.2017 22:00 14,1 C 94 % 1015,6 hPa 0,0 l/m 1,9 km/h (1 Bft) O-NO 13,1 C 14,1 C 5,9 km/h (2 Bft)
18.08.2017 23:00 13,6 C 95 % 1016,2 hPa 0,0 l/m 0,1 km/h (0 Bft) O-SO 12,7 C 13,6 C 0,9 km/h (0 Bft)
19.08.2017 00:00 13,5 C 96 % 1016,4 hPa 0,0 l/m 0,1 km/h (0 Bft) O-SO 12,8 C 13,5 C 0,8 km/h (0 Bft)
19.08.2017 01:00 13,8 C 96 % 1016,4 hPa 0,0 l/m 0,1 km/h (0 Bft) O-SO 13,2 C 13,8 C 0,8 km/h (0 Bft)
19.08.2017 02:00 13,6 C 96 % 1016,0 hPa 0,0 l/m 0,0 km/h (0 Bft) O-SO 12,9 C 13,6 C 0,5 km/h (0 Bft)
19.08.2017 03:00 13,1 C 96 % 1016,1 hPa 0,3 l/m 0,3 km/h (0 Bft) O-SO 12,5 C 13,1 C 1,9 km/h (1 Bft)
19.08.2017 04:00 12,5 C 96 % 1016,2 hPa 0,0 l/m 0,1 km/h (0 Bft) SW 11,8 C 12,5 C 1,5 km/h (1 Bft)
19.08.2017 05:00 12,8 C 97 % 1016,2 hPa 0,0 l/m 1,3 km/h (1 Bft) O 12,3 C 12,8 C 4,7 km/h (1 Bft)
19.08.2017 06:00 12,7 C 95 % 1016,8 hPa 0,3 l/m 1,0 km/h (0 Bft) NW 11,9 C 12,7 C 4,1 km/h (1 Bft)
19.08.2017 07:00 12,2 C 97 % 1017,2 hPa 0,3 l/m 0,0 km/h (0 Bft) NW 11,7 C 12,2 C 0,4 km/h (0 Bft)
19.08.2017 08:00 12,9 C 96 % 1017,7 hPa 0,0 l/m 0,5 km/h (0 Bft) N-NO 12,2 C 12,9 C 2,3 km/h (1 Bft)
19.08.2017 09:00 13,3 C 93 % 1018,2 hPa 0,0 l/m 1,2 km/h (1 Bft) O 12,2 C 13,3 C 3,9 km/h (1 Bft)
19.08.2017 10:00 14,7 C 87 % 1018,6 hPa 0,0 l/m 2,3 km/h (1 Bft) O-NO 12,5 C 14,7 C 6,1 km/h (2 Bft)
19.08.2017 11:00 16,5 C 77 % 1018,6 hPa 0,0 l/m 3,6 km/h (1 Bft) O-NO 12,5 C 16,5 C 7,8 km/h (2 Bft)
19.08.2017 12:00 17,7 C 71 % 1018,6 hPa 0,0 l/m 4,6 km/h (1 Bft) O-NO 12,3 C 17,7 C 9,9 km/h (2 Bft)
19.08.2017 13:00 19,5 C 62 % 1018,4 hPa 0,0 l/m 5,4 km/h (1 Bft) NO 12,0 C 19,5 C 13,6 km/h (3 Bft)
19.08.2017 14:00 18,3 C 67 % 1018,8 hPa 0,0 l/m 4,3 km/h (1 Bft) NO 12,0 C 18,3 C 11,3 km/h (2 Bft)
19.08.2017 15:00 17,4 C 70 % 1019,0 hPa 0,0 l/m 3,8 km/h (1 Bft) O-NO 11,7 C 17,4 C 10,2 km/h (2 Bft)
19.08.2017 16:00 19,2 C 61 % 1019,0 hPa 0,0 l/m 4,8 km/h (1 Bft) NO 11,5 C 19,2 C 12,6 km/h (3 Bft)
19.08.2017 17:00 19,5 C 60 % 1018,9 hPa 0,0 l/m 3,6 km/h (1 Bft) NO 11,6 C 19,5 C 9,5 km/h (2 Bft)
19.08.2017 18:00 18,5 C 64 % 1019,2 hPa 0,0 l/m 3,1 km/h (1 Bft) O-NO 11,5 C 18,5 C 8,6 km/h (2 Bft)
19.08.2017 19:00 16,9 C 68 % 1019,4 hPa 0,0 l/m 1,3 km/h (1 Bft) S 10,9 C 16,9 C 4,9 km/h (1 Bft)
19.08.2017 20:00 14,6 C 76 % 1020,1 hPa 0,0 l/m 0,2 km/h (0 Bft) O 10,3 C 14,6 C 2,0 km/h (1 Bft)
19.08.2017 21:00 11,9 C 87 % 1020,8 hPa 0,0 l/m 0,1 km/h (0 Bft) O 9,7 C 11,9 C 1,2 km/h (1 Bft)
19.08.2017 22:00 10,0 C 91 % 1021,3 hPa 0,0 l/m 0,1 km/h (0 Bft) O 8,6 C 10,0 C 1,1 km/h (0 Bft)
19.08.2017 23:00 9,0 C 93 % 1021,8 hPa 0,0 l/m 0,0 km/h (0 Bft) O 7,9 C 9,0 C 0,3 km/h (0 Bft)
20.08.2017 00:00 8,5 C 94 % 1021,8 hPa 0,0 l/m 0,0 km/h (0 Bft) O 7,5 C 8,5 C 0,0 km/h (0 Bft)
20.08.2017 01:00 8,0 C 95 % 1021,7 hPa 0,0 l/m 0,0 km/h (0 Bft) O 7,2 C 8,0 C 0,3 km/h (0 Bft)
20.08.2017 02:00 7,6 C 95 % 1021,8 hPa 0,0 l/m 0,0 km/h (0 Bft) O 6,8 C 7,6 C 0,0 km/h (0 Bft)
20.08.2017 03:00 7,1 C 96 % 1021,9 hPa 0,0 l/m 0,0 km/h (0 Bft) O 6,5 C 7,1 C 0,1 km/h (0 Bft)
20.08.2017 04:00 7,6 C 97 % 1022,2 hPa 0,0 l/m 0,0 km/h (0 Bft) O 7,1 C 7,6 C 0,1 km/h (0 Bft)
20.08.2017 05:00 7,8 C 96 % 1022,2 hPa 0,0 l/m 0,1 km/h (0 Bft) O 7,3 C 7,8 C 0,5 km/h (0 Bft)
20.08.2017 06:00 8,3 C 96 % 1022,5 hPa 0,0 l/m 0,0 km/h (0 Bft) O 7,7 C 8,3 C 0,1 km/h (0 Bft)
20.08.2017 07:00 8,6 C 97 % 1023,0 hPa 0,0 l/m 0,0 km/h (0 Bft) O 8,1 C 8,6 C 0,3 km/h (0 Bft)
20.08.2017 08:00 10,7 C 94 % 1023,4 hPa 0,0 l/m 0,3 km/h (0 Bft) O 9,8 C 10,7 C 1,7 km/h (1 Bft)
20.08.2017 09:00 15,0 C 79 % 1023,4 hPa 0,0 l/m 1,6 km/h (1 Bft) O 11,4 C 15,0 C 4,8 km/h (1 Bft)
20.08.2017 10:00 16,2 C 69 % 1023,5 hPa 0,0 l/m 3,3 km/h (1 Bft) O 10,4 C 16,2 C 9,3 km/h (2 Bft)
20.08.2017 11:00 17,6 C 62 % 1023,8 hPa 0,0 l/m 3,9 km/h (1 Bft) O-NO 10,3 C 17,6 C 8,4 km/h (2 Bft)
20.08.2017 12:00 18,4 C 58 % 1023,5 hPa 0,0 l/m 5,2 km/h (1 Bft) O-NO 10,1 C 18,3 C 10,0 km/h (2 Bft)
20.08.2017 13:00 19,1 C 56 % 1023,2 hPa 0,0 l/m 4,3 km/h (1 Bft) O-NO 10,2 C 19,1 C 8,3 km/h (2 Bft)
20.08.2017 14:00 19,6 C 50 % 1023,2 hPa 0,0 l/m 4,8 km/h (1 Bft) O-NO 9,0 C 19,6 C 9,2 km/h (2 Bft)
20.08.2017 15:00 20,2 C 49 % 1023,1 hPa 0,0 l/m 4,8 km/h (1 Bft) O 9,1 C 20,1 C 10,5 km/h (2 Bft)
20.08.2017 16:00 19,2 C 56 % 1023,2 hPa 0,0 l/m 3,9 km/h (1 Bft) O-NO 10,1 C 19,2 C 11,3 km/h (2 Bft)
20.08.2017 17:00 19,0 C 57 % 1023,3 hPa 0,0 l/m 3,3 km/h (1 Bft) O-NO 10,2 C 19,0 C 10,9 km/h (2 Bft)
20.08.2017 18:00 18,3 C 59 % 1023,3 hPa 0,0 l/m 2,7 km/h (1 Bft) O-NO 10,1 C 18,3 C 8,2 km/h (2 Bft)
20.08.2017 19:00 16,6 C 64 % 1023,4 hPa 0,0 l/m 1,6 km/h (1 Bft) O-NO 9,7 C 16,6 C 4,9 km/h (1 Bft)
20.08.2017 20:00 14,4 C 74 % 1023,9 hPa 0,0 l/m 0,4 km/h (0 Bft) O-NO 9,8 C 14,4 C 2,3 km/h (1 Bft)
20.08.2017 21:00 12,8 C 82 % 1024,2 hPa 0,0 l/m 0,0 km/h (0 Bft) O-NO 9,9 C 12,8 C 0,0 km/h (0 Bft)
20.08.2017 22:00 11,1 C 87 % 1024,4 hPa 0,0 l/m 0,0 km/h (0 Bft) O-NO 8,9 C 11,1 C 0,0 km/h (0 Bft)
20.08.2017 23:00 9,5 C 91 % 1024,5 hPa 0,0 l/m 0,0 km/h (0 Bft) O-NO 8,1 C 9,5 C 0,0 km/h (0 Bft)
Min-Datum _ 20.08.17 15.08.17 18.08.17 - 20.08.17 - 20.08.17 20.08.17 20.08.17
_ Min-Zeit 03:20 14:30 16:40 - 23:00 - 03:20 03:20 23:00
Minimum _ 7,1 C 39 % 1010,2 hPa - 0,0 km/h (0 Bft) - 6,4 C 7,1 C 0,0 km/h (0 Bft)
Max-Datum _ 15.08.17 19.08.17 20.08.17 15.08.17 15.08.17 - 17.08.17 15.08.17 15.08.17
_ Max-Zeit 15:05 05:20 23:40 18:05 18:05 - 09:40 15:05 18:05
Maximum _ 28,8 C 98 % 1024,8 hPa 20,1 l/m 11,5 km/h
O-NO (2 Bft)
- 18,8 C 28,8 C 27,4 km/h
O-NO (5 Bft)
Durchschnitt _ 17,6 C 80 % 1018,0 hPa #43,2 l/m 1,6 km/h (1 Bft) O-NO 13,7 C 17,6 C 4,5 km/h (1 Bft)